createdAt,value
2016-10-26T00:00:55.799Z,21.03
2016-10-26T00:02:08.371Z,21.03
2016-10-26T00:03:21.372Z,21.03
2016-10-26T00:04:34.421Z,21.13
2016-10-26T00:05:47.487Z,21.01
2016-10-26T00:07:00.497Z,21.05
2016-10-26T00:08:13.526Z,21.03
2016-10-26T00:09:26.552Z,21.08
2016-10-26T00:10:40.095Z,21.13
2016-10-26T00:11:53.646Z,21.19
2016-10-26T00:13:06.658Z,21.16
2016-10-26T00:14:19.196Z,21.14
2016-10-26T00:15:31.744Z,21.18
2016-10-26T00:16:44.785Z,21.22
2016-10-26T00:17:57.381Z,21.1
2016-10-26T00:19:10.460Z,21.05
2016-10-26T00:20:24.050Z,21.04
2016-10-26T00:21:37.651Z,21.03
2016-10-26T00:22:50.189Z,21.03
2016-10-26T00:24:03.214Z,21.01
2016-10-26T00:25:15.707Z,21.08
2016-10-26T00:26:28.733Z,21.05
2016-10-26T00:27:41.233Z,21.11
2016-10-26T00:28:54.312Z,21.18
2016-10-26T00:30:06.780Z,21.16
2016-10-26T00:31:20.338Z,21.1
2016-10-26T00:32:32.847Z,21.1
2016-10-26T00:33:44.847Z,21.08
2016-10-26T00:34:57.947Z,21.1
2016-10-26T00:36:09.936Z,21.18
2016-10-26T00:37:22.465Z,21.19
2016-10-26T00:38:33.954Z,21.18
2016-10-26T00:39:47.483Z,21.11
2016-10-26T00:41:00.064Z,21.14
2016-10-26T00:42:13.652Z,21.16
2016-10-26T00:43:26.153Z,21.16
2016-10-26T00:44:38.687Z,21.13
2016-10-26T00:45:51.184Z,21.13
2016-10-26T00:47:03.680Z,21.08
2016-10-26T00:48:16.746Z,21.05
2016-10-26T00:49:29.243Z,21.07
2016-10-26T00:50:42.805Z,21.04
2016-10-26T00:51:55.784Z,21.04
2016-10-26T00:53:09.312Z,21.01
2016-10-26T00:54:22.850Z,21.05
2016-10-26T00:55:35.389Z,21.04
2016-10-26T00:56:47.358Z,20.98
2016-10-26T00:58:00.832Z,20.92
2016-10-26T00:59:12.758Z,20.98
2016-10-26T01:00:25.737Z,20.9
2016-10-26T01:01:39.229Z,20.95
2016-10-26T01:02:51.661Z,21.04
2016-10-26T01:04:04.096Z,21.04
2016-10-26T01:05:17.157Z,20.92
2016-10-26T01:06:29.109Z,21.03
2016-10-26T01:07:42.650Z,21
2016-10-26T01:08:56.174Z,20.95
2016-10-26T01:10:09.733Z,20.93
2016-10-26T01:11:22.778Z,21.07
2016-10-26T01:12:35.389Z,20.93
2016-10-26T01:13:47.862Z,20.98
2016-10-26T01:15:01.405Z,21.05
2016-10-26T01:16:14.900Z,21.01
2016-10-26T01:17:27.921Z,20.95
2016-10-26T01:18:41.411Z,21.03
2016-10-26T01:19:53.893Z,21.05
2016-10-26T01:21:06.948Z,21.01
2016-10-26T01:22:19.905Z,21.04
2016-10-26T01:23:33.502Z,21.01
2016-10-26T01:24:46.537Z,21.05
2016-10-26T01:25:59.623Z,21.03
2016-10-26T01:27:13.139Z,21.04
2016-10-26T01:28:26.629Z,21.04
2016-10-26T01:29:39.135Z,21.05
2016-10-26T01:30:52.219Z,21
2016-10-26T01:32:04.751Z,21.03
2016-10-26T01:33:18.505Z,21.03
2016-10-26T01:34:31.583Z,20.97
2016-10-26T01:35:45.237Z,21.01
2016-10-26T01:36:57.843Z,20.95
2016-10-26T01:38:10.886Z,21.03
2016-10-26T01:39:24.393Z,21.04
2016-10-26T01:40:37.520Z,21.03
2016-10-26T01:41:50.584Z,21.01
2016-10-26T01:43:02.618Z,20.97
2016-10-26T01:44:16.305Z,20.97
2016-10-26T01:45:29.477Z,20.93
2016-10-26T01:46:42.283Z,20.97
2016-10-26T01:47:54.827Z,21
2016-10-26T01:49:07.941Z,21.03
2016-10-26T01:50:20.457Z,20.95
2016-10-26T01:51:34.016Z,20.95
2016-10-26T01:52:47.077Z,20.97
2016-10-26T01:53:59.617Z,20.95
2016-10-26T01:55:13.355Z,20.98
2016-10-26T01:56:26.409Z,20.83
2016-10-26T01:57:39.428Z,20.88
2016-10-26T01:58:52.505Z,20.86
2016-10-26T02:00:05.505Z,20.85
2016-10-26T02:01:18.542Z,20.85
2016-10-26T02:02:31.651Z,20.83
2016-10-26T02:03:44.821Z,20.88
2016-10-26T02:04:57.960Z,20.85
2016-10-26T02:06:09.945Z,20.8
2016-10-26T02:07:53.071Z,20.88
2016-10-26T02:09:04.517Z,20.85
2016-10-26T02:10:17.107Z,20.86
2016-10-26T02:11:30.167Z,20.82
2016-10-26T02:12:43.760Z,20.86
2016-10-26T02:13:57.351Z,20.86
2016-10-26T02:15:10.933Z,20.83
2016-10-26T02:16:25.601Z,20.92
2016-10-26T02:17:38.997Z,21
2016-10-26T02:18:52.036Z,21.01
2016-10-26T02:20:04.036Z,20.97
2016-10-26T02:21:17.251Z,20.89
2016-10-26T02:22:29.750Z,20.86
2016-10-26T02:23:43.270Z,20.86
2016-10-26T02:24:56.882Z,20.95
2016-10-26T02:26:09.943Z,21.05
2016-10-26T02:27:23.536Z,21
2016-10-26T02:28:36.536Z,20.98
2016-10-26T02:29:49.113Z,20.98
2016-10-26T02:31:02.183Z,21.03
2016-10-26T02:32:15.755Z,21.01
2016-10-26T02:33:29.297Z,20.92
2016-10-26T02:34:42.416Z,21.04
2016-10-26T02:35:55.036Z,21.01
2016-10-26T02:37:07.644Z,21.03
2016-10-26T02:38:20.206Z,20.95
2016-10-26T02:39:32.700Z,21.01
2016-10-26T02:40:46.296Z,20.98
2016-10-26T02:41:59.348Z,20.97
2016-10-26T02:43:13.016Z,20.98
2016-10-26T02:44:24.993Z,21
2016-10-26T02:45:38.044Z,20.95
2016-10-26T02:46:51.618Z,21.04
2016-10-26T02:48:03.639Z,20.89
2016-10-26T02:49:16.190Z,20.98
2016-10-26T02:50:28.689Z,21
2016-10-26T02:51:42.262Z,20.97
2016-10-26T02:52:54.809Z,20.89
2016-10-26T02:54:08.398Z,21.03
2016-10-26T02:55:22.045Z,20.97
2016-10-26T02:56:35.605Z,20.97
2016-10-26T02:57:48.653Z,20.95
2016-10-26T02:59:01.708Z,21.03
2016-10-26T03:00:14.756Z,20.95
2016-10-26T03:01:28.367Z,20.98
2016-10-26T03:02:40.970Z,20.97
2016-10-26T03:03:54.567Z,21.03
2016-10-26T03:05:07.656Z,21
2016-10-26T03:06:21.293Z,21.01
2016-10-26T03:07:34.870Z,20.97
2016-10-26T03:08:47.953Z,20.93
2016-10-26T03:10:01.103Z,21
2016-10-26T03:11:14.726Z,20.95
2016-10-26T03:12:27.794Z,20.97
2016-10-26T03:13:40.788Z,21.01
2016-10-26T03:14:52.795Z,21
2016-10-26T03:16:05.840Z,20.98
2016-10-26T03:17:18.891Z,20.89
2016-10-26T03:18:31.987Z,20.93
2016-10-26T03:19:45.043Z,20.88
2016-10-26T03:20:58.696Z,20.98
2016-10-26T03:22:11.739Z,21.03
2016-10-26T03:23:25.371Z,20.95
2016-10-26T03:24:38.536Z,20.93
2016-10-26T03:25:51.609Z,21.03
2016-10-26T03:27:03.569Z,20.95
2016-10-26T03:28:15.565Z,21
2016-10-26T03:29:28.079Z,21.03
2016-10-26T03:30:41.159Z,20.95
2016-10-26T03:31:54.793Z,21
2016-10-26T03:33:08.363Z,20.95
2016-10-26T03:34:20.957Z,20.85
2016-10-26T03:35:33.996Z,20.98
2016-10-26T03:36:47.531Z,20.89
2016-10-26T03:38:00.570Z,20.9
2016-10-26T03:39:12.707Z,20.89
2016-10-26T03:40:26.251Z,20.9
2016-10-26T03:41:39.890Z,20.9
2016-10-26T03:42:53.422Z,20.86
2016-10-26T03:44:06.972Z,20.98
2016-10-26T03:45:19.508Z,20.83
2016-10-26T03:46:32.523Z,20.9
2016-10-26T03:47:45.601Z,20.82
2016-10-26T03:48:58.698Z,20.85
2016-10-26T03:50:11.268Z,20.98
2016-10-26T03:51:24.289Z,20.98
2016-10-26T03:52:37.940Z,20.9
2016-10-26T03:53:51.058Z,20.82
2016-10-26T03:55:03.650Z,20.86
2016-10-26T03:56:16.142Z,20.85
2016-10-26T03:57:28.654Z,20.86
2016-10-26T03:58:41.725Z,20.9
2016-10-26T03:59:53.708Z,20.93
2016-10-26T04:01:07.227Z,20.83
2016-10-26T04:02:20.252Z,20.95
2016-10-26T04:03:33.857Z,20.86
2016-10-26T04:04:46.943Z,20.85
2016-10-26T04:05:59.523Z,20.85
2016-10-26T04:07:12.628Z,20.97
2016-10-26T04:08:25.175Z,20.95
2016-10-26T04:09:38.668Z,20.85
2016-10-26T04:10:51.708Z,20.89
2016-10-26T04:12:04.822Z,20.98
2016-10-26T04:13:17.872Z,20.88
2016-10-26T04:14:30.880Z,20.86
2016-10-26T04:15:44.436Z,20.92
2016-10-26T04:16:55.890Z,20.92
2016-10-26T04:18:09.468Z,20.83
2016-10-26T04:19:21.983Z,20.89
2016-10-26T04:20:35.568Z,20.77
2016-10-26T04:21:49.146Z,20.86
2016-10-26T04:23:02.254Z,20.98
2016-10-26T04:24:15.251Z,20.83
2016-10-26T04:25:27.760Z,20.98
2016-10-26T04:26:41.396Z,20.89
2016-10-26T04:27:53.366Z,20.8
2016-10-26T04:29:06.985Z,20.82
2016-10-26T04:30:20.041Z,20.86
2016-10-26T04:31:32.558Z,20.95
2016-10-26T04:32:46.126Z,20.82
2016-10-26T04:33:58.694Z,20.9
2016-10-26T04:35:12.292Z,20.79
2016-10-26T04:36:25.902Z,20.89
2016-10-26T04:37:38.919Z,20.85
2016-10-26T04:38:51.925Z,20.83
2016-10-26T04:40:04.953Z,20.89
2016-10-26T04:41:18.503Z,20.89
2016-10-26T04:42:32.113Z,20.77
2016-10-26T04:43:44.736Z,20.86
2016-10-26T04:44:57.790Z,20.83
2016-10-26T04:46:11.381Z,20.8
2016-10-26T04:47:24.511Z,20.73
2016-10-26T04:48:38.075Z,20.79
2016-10-26T04:49:50.630Z,20.77
2016-10-26T04:51:04.196Z,20.77
2016-10-26T04:52:17.735Z,20.7
2016-10-26T04:53:30.221Z,20.74
2016-10-26T04:54:43.780Z,20.71
2016-10-26T04:55:57.361Z,20.79
2016-10-26T04:57:09.932Z,20.8
2016-10-26T04:58:23.539Z,20.75
2016-10-26T04:59:37.150Z,20.74
2016-10-26T05:00:50.734Z,20.73
2016-10-26T05:02:03.863Z,20.79
2016-10-26T05:03:16.888Z,20.75
2016-10-26T05:04:28.871Z,20.7
2016-10-26T05:05:42.492Z,20.71
2016-10-26T05:06:56.056Z,20.73
2016-10-26T05:08:08.084Z,20.74
2016-10-26T05:09:21.101Z,20.73
2016-10-26T05:10:34.607Z,20.64
2016-10-26T05:11:48.301Z,20.74
2016-10-26T05:13:01.847Z,20.79
2016-10-26T05:14:14.909Z,20.67
2016-10-26T05:15:28.516Z,20.63
2016-10-26T05:16:42.086Z,20.65
2016-10-26T05:17:55.701Z,20.71
2016-10-26T05:19:08.776Z,20.71
2016-10-26T05:20:21.798Z,20.73
2016-10-26T05:21:34.927Z,20.71
2016-10-26T05:22:48.475Z,20.68
2016-10-26T05:24:01.979Z,20.7
2016-10-26T05:25:15.013Z,20.63
2016-10-26T05:26:26.968Z,20.74
2016-10-26T05:27:40.514Z,20.65
2016-10-26T05:28:54.058Z,20.67
2016-10-26T05:30:06.555Z,20.67
2016-10-26T05:31:19.554Z,20.68
2016-10-26T05:32:32.618Z,20.65
2016-10-26T05:33:46.177Z,20.56
2016-10-26T05:34:59.246Z,20.61
2016-10-26T05:36:12.791Z,20.58
2016-10-26T05:37:25.314Z,20.6
2016-10-26T05:38:38.914Z,20.53
2016-10-26T05:39:51.939Z,20.53
2016-10-26T05:41:04.442Z,20.53
2016-10-26T05:42:17.528Z,20.53
2016-10-26T05:43:30.670Z,20.5
2016-10-26T05:44:44.284Z,20.55
2016-10-26T05:45:57.850Z,20.53
2016-10-26T05:47:11.468Z,20.5
2016-10-26T05:48:25.009Z,20.49
2016-10-26T05:49:38.589Z,20.46
2016-10-26T05:50:52.172Z,20.48
2016-10-26T05:52:05.269Z,20.48
2016-10-26T05:53:18.833Z,20.49
2016-10-26T05:54:31.884Z,20.48
2016-10-26T05:55:44.508Z,20.48
2016-10-26T05:56:57.548Z,20.39
2016-10-26T05:58:10.604Z,20.37
2016-10-26T05:59:23.631Z,20.49
2016-10-26T06:00:36.156Z,20.48
2016-10-26T06:01:49.742Z,20.49
2016-10-26T06:03:03.378Z,20.49
2016-10-26T06:04:15.861Z,20.46
2016-10-26T06:05:28.939Z,20.52
2016-10-26T06:06:41.462Z,20.49
2016-10-26T06:07:54.003Z,20.48
2016-10-26T06:09:07.063Z,20.46
2016-10-26T06:10:20.633Z,20.46
2016-10-26T06:11:33.130Z,20.48
2016-10-26T06:12:46.188Z,20.49
2016-10-26T06:13:59.730Z,20.36
2016-10-26T06:15:13.310Z,20.37
2016-10-26T06:16:26.882Z,20.37
2016-10-26T06:17:39.982Z,20.44
2016-10-26T06:18:53.484Z,20.46
2016-10-26T06:20:06.055Z,20.44
2016-10-26T06:21:18.080Z,20.41
2016-10-26T06:22:31.110Z,20.32
2016-10-26T06:23:43.567Z,20.46
2016-10-26T06:24:56.687Z,20.37
2016-10-26T06:26:09.187Z,20.32
2016-10-26T06:27:21.184Z,20.36
2016-10-26T06:28:34.719Z,20.34
2016-10-26T06:29:47.342Z,20.29
2016-10-26T06:31:00.376Z,20.41
2016-10-26T06:32:13.425Z,20.34
2016-10-26T06:33:27.052Z,20.29
2016-10-26T06:34:40.058Z,20.36
2016-10-26T06:35:53.643Z,20.29
2016-10-26T06:37:06.726Z,20.29
2016-10-26T06:38:20.243Z,20.36
2016-10-26T06:39:33.304Z,20.27
2016-10-26T06:40:45.848Z,20.29
2016-10-26T06:41:58.379Z,20.34
2016-10-26T06:43:11.428Z,20.33
2016-10-26T06:44:24.386Z,20.36
2016-10-26T06:45:37.484Z,20.33
2016-10-26T06:46:49.988Z,20.3
2016-10-26T06:48:03.025Z,20.32
2016-10-26T06:49:16.032Z,20.36
2016-10-26T06:50:29.129Z,20.3
2016-10-26T06:51:42.764Z,20.32
2016-10-26T06:52:55.834Z,20.32
2016-10-26T06:54:08.849Z,20.29
2016-10-26T06:55:21.361Z,20.3
2016-10-26T06:56:33.874Z,20.36
2016-10-26T06:57:46.445Z,20.34
2016-10-26T06:58:59.508Z,20.37
2016-10-26T07:00:12.485Z,20.34
2016-10-26T07:01:25.055Z,20.33
2016-10-26T07:02:38.614Z,20.3
2016-10-26T07:03:51.136Z,20.32
2016-10-26T07:05:03.666Z,20.3
2016-10-26T07:06:16.192Z,20.32
2016-10-26T07:07:29.769Z,20.26
2016-10-26T07:08:42.324Z,20.29
2016-10-26T07:09:55.312Z,20.3
2016-10-26T07:11:07.827Z,20.3
2016-10-26T07:12:21.441Z,20.3
2016-10-26T07:13:33.987Z,20.29
2016-10-26T07:14:46.469Z,20.34
2016-10-26T07:15:59.474Z,20.33
2016-10-26T07:17:13.083Z,20.32
2016-10-26T07:18:25.606Z,20.34
2016-10-26T07:19:38.099Z,20.3
2016-10-26T07:20:51.772Z,20.3
2016-10-26T07:22:04.819Z,20.32
2016-10-26T07:23:17.888Z,20.33
2016-10-26T07:24:31.483Z,20.3
2016-10-26T07:25:45.106Z,20.32
2016-10-26T07:26:57.645Z,20.27
2016-10-26T07:28:10.113Z,20.32
2016-10-26T07:29:23.707Z,20.3
2016-10-26T07:30:35.740Z,20.32
2016-10-26T07:31:48.239Z,20.25
2016-10-26T07:33:01.286Z,20.33
2016-10-26T07:34:14.411Z,20.27
2016-10-26T07:35:26.444Z,20.33
2016-10-26T07:36:38.987Z,20.34
2016-10-26T07:37:51.478Z,20.3
2016-10-26T07:39:05.083Z,20.26
2016-10-26T07:40:18.607Z,20.3
2016-10-26T07:41:32.191Z,20.27
2016-10-26T07:42:45.808Z,20.32
2016-10-26T07:43:58.347Z,20.25
2016-10-26T07:45:11.399Z,20.27
2016-10-26T07:46:25.098Z,20.29
2016-10-26T07:47:37.656Z,20.23
2016-10-26T07:48:50.722Z,20.3
2016-10-26T07:50:04.251Z,20.32
2016-10-26T07:53:02.036Z,20.23
2016-10-26T07:54:14.980Z,20.3
2016-10-26T07:55:27.504Z,20.3
2016-10-26T07:56:40.019Z,20.27
2016-10-26T07:57:53.113Z,20.33
2016-10-26T07:59:05.061Z,20.29
2016-10-26T08:00:17.136Z,20.32
2016-10-26T08:01:30.152Z,20.34
2016-10-26T08:02:42.135Z,20.3
2016-10-26T08:03:55.240Z,20.3
2016-10-26T08:05:07.799Z,20.33
2016-10-26T08:06:19.777Z,20.36
2016-10-26T08:07:32.828Z,20.32
2016-10-26T08:08:45.924Z,20.33
2016-10-26T08:09:58.478Z,20.3
2016-10-26T08:12:55.178Z,20.32
2016-10-26T08:14:07.151Z,20.32
2016-10-26T08:15:19.697Z,20.3
2016-10-26T08:16:32.690Z,20.33
2016-10-26T08:17:45.852Z,20.37
2016-10-26T08:18:58.904Z,20.29
2016-10-26T08:20:11.424Z,20.3
2016-10-26T08:21:24.039Z,20.29
2016-10-26T08:22:37.126Z,20.3
2016-10-26T08:23:49.667Z,20.3
2016-10-26T08:25:02.681Z,20.29
2016-10-26T08:26:16.202Z,20.25
2016-10-26T08:27:29.762Z,20.27
2016-10-26T08:28:43.336Z,20.32
2016-10-26T08:29:56.887Z,20.3
2016-10-26T08:31:09.416Z,20.27
2016-10-26T08:32:22.934Z,20.27
2016-10-26T08:33:35.966Z,20.29
2016-10-26T08:34:49.532Z,20.41
2016-10-26T08:36:02.634Z,20.41
2016-10-26T08:37:15.211Z,20.39
2016-10-26T08:38:27.758Z,20.39
2016-10-26T08:39:40.250Z,20.34
2016-10-26T08:40:52.213Z,20.41
2016-10-26T08:42:04.709Z,20.39
2016-10-26T08:43:17.667Z,20.5
2016-10-26T08:44:31.249Z,20.52
2016-10-26T08:45:43.794Z,20.52
2016-10-26T08:46:57.295Z,20.49
2016-10-26T08:48:09.330Z,20.5
2016-10-26T08:49:22.944Z,20.49
2016-10-26T08:50:35.975Z,20.5
2016-10-26T08:51:49.571Z,20.46
2016-10-26T08:53:02.071Z,20.46
2016-10-26T08:54:14.588Z,20.52
2016-10-26T08:55:27.124Z,20.49
2016-10-26T08:56:39.665Z,20.49
2016-10-26T08:57:52.157Z,20.5
2016-10-26T08:59:05.665Z,20.55
2016-10-26T09:00:18.703Z,20.52
2016-10-26T09:01:32.338Z,20.5
2016-10-26T09:02:44.821Z,20.5
2016-10-26T09:03:58.370Z,20.58
2016-10-26T09:05:11.962Z,20.53
2016-10-26T09:06:25.587Z,20.61
2016-10-26T09:07:38.634Z,20.6
2016-10-26T09:08:52.159Z,20.67
2016-10-26T09:10:05.197Z,20.64
2016-10-26T09:11:18.245Z,20.68
2016-10-26T09:12:31.274Z,20.65
2016-10-26T09:13:43.339Z,20.67
2016-10-26T09:14:56.414Z,20.65
2016-10-26T09:16:08.995Z,20.7
2016-10-26T09:17:21.490Z,20.67
2016-10-26T09:18:34.570Z,20.77
2016-10-26T09:19:47.642Z,20.74
2016-10-26T09:21:00.174Z,20.79
2016-10-26T09:22:12.766Z,20.77
2016-10-26T09:23:25.278Z,20.71
2016-10-26T09:24:38.991Z,20.71
2016-10-26T09:25:52.026Z,20.73
2016-10-26T09:27:05.073Z,20.75
2016-10-26T09:28:18.671Z,20.82
2016-10-26T09:29:31.676Z,20.77
2016-10-26T09:30:45.260Z,20.82
2016-10-26T09:31:57.807Z,20.86
2016-10-26T09:33:11.394Z,20.85
2016-10-26T09:34:24.965Z,20.85
2016-10-26T09:35:37.524Z,20.82
2016-10-26T09:36:50.604Z,20.92
2016-10-26T09:38:03.567Z,20.95
2016-10-26T09:39:16.147Z,20.97
2016-10-26T09:40:29.225Z,20.92
2016-10-26T09:41:42.831Z,21
2016-10-26T09:42:55.393Z,20.93
2016-10-26T09:44:08.480Z,20.97
2016-10-26T09:45:21.629Z,20.98
2016-10-26T09:46:34.227Z,20.98
2016-10-26T09:47:47.248Z,20.93
2016-10-26T09:49:00.787Z,20.92
2016-10-26T09:50:14.368Z,21
2016-10-26T09:51:26.815Z,21.01
2016-10-26T09:52:39.917Z,21.04
2016-10-26T09:53:52.398Z,21.01
2016-10-26T09:55:04.916Z,21
2016-10-26T09:56:16.921Z,21.04
2016-10-26T09:57:29.420Z,21.08
2016-10-26T09:58:41.939Z,21.1
2016-10-26T09:59:55.016Z,21.2
2016-10-26T10:01:08.585Z,21.16
2016-10-26T10:02:22.136Z,21.18
2016-10-26T10:03:35.635Z,21.23
2016-10-26T10:04:48.665Z,21.25
2016-10-26T10:06:01.745Z,21.23
2016-10-26T10:07:14.798Z,21.23
2016-10-26T10:08:27.823Z,21.25
2016-10-26T10:09:40.869Z,21.29
2016-10-26T10:10:54.415Z,21.26
2016-10-26T10:12:07.476Z,21.26
2016-10-26T10:13:20.469Z,21.28
2016-10-26T10:14:32.483Z,21.29
2016-10-26T10:15:45.580Z,21.28
2016-10-26T10:16:59.245Z,21.37
2016-10-26T10:18:11.240Z,21.45
2016-10-26T10:19:24.247Z,21.4
2016-10-26T10:20:36.780Z,21.58
2016-10-26T10:21:50.374Z,21.51
2016-10-26T10:23:02.873Z,21.51
2016-10-26T10:24:14.829Z,21.47
2016-10-26T10:25:27.354Z,21.44
2016-10-26T10:26:39.359Z,21.44
2016-10-26T10:27:51.884Z,21.48
2016-10-26T10:29:04.389Z,21.6
2016-10-26T10:30:16.888Z,21.69
2016-10-26T10:31:29.970Z,21.69
2016-10-26T10:32:42.581Z,21.77
2016-10-26T10:33:54.559Z,21.75
2016-10-26T10:35:06.575Z,21.82
2016-10-26T10:36:19.626Z,21.94
2016-10-26T10:37:31.661Z,22.01
2016-10-26T10:38:44.690Z,22.01
2016-10-26T10:39:58.212Z,22.18
2016-10-26T10:41:10.725Z,22.16
2016-10-26T10:42:23.786Z,22.16
2016-10-26T10:43:36.421Z,22.15
2016-10-26T10:44:49.547Z,22.11
2016-10-26T10:46:02.084Z,22.07
2016-10-26T10:47:14.640Z,22.09
2016-10-26T10:48:27.187Z,22.18
2016-10-26T10:49:39.755Z,22.23
2016-10-26T10:50:52.762Z,22.3
2016-10-26T10:52:05.299Z,22.51
2016-10-26T10:53:17.809Z,22.64
2016-10-26T10:54:31.388Z,22.68
2016-10-26T10:55:43.439Z,22.66
2016-10-26T10:56:57.011Z,22.78
2016-10-26T10:58:10.077Z,22.81
2016-10-26T10:59:23.217Z,22.86
2016-10-26T11:00:36.301Z,22.91
2016-10-26T11:01:48.846Z,22.93
2016-10-26T11:03:01.388Z,23.15
2016-10-26T11:04:15.012Z,23.13
2016-10-26T11:05:28.097Z,23.25
2016-10-26T11:06:40.625Z,23.31
2016-10-26T11:07:53.193Z,23.25
2016-10-26T11:09:06.219Z,23.34
2016-10-26T11:10:19.256Z,23.37
2016-10-26T11:11:32.232Z,23.55
2016-10-26T11:12:45.356Z,23.63
2016-10-26T11:13:56.827Z,23.82
2016-10-26T11:15:08.829Z,23.91
2016-10-26T11:16:22.442Z,24.15
2016-10-26T11:17:34.457Z,24.33
2016-10-26T11:18:47.488Z,24.41
2016-10-26T11:19:59.509Z,24.52
2016-10-26T11:21:11.481Z,24.66
2016-10-26T11:22:24.145Z,24.66
2016-10-26T11:23:36.651Z,24.44
2016-10-26T11:24:49.628Z,24.31
2016-10-26T11:26:02.685Z,24.11
2016-10-26T11:27:15.117Z,24.07
2016-10-26T11:28:28.161Z,24.13
2016-10-26T11:29:40.636Z,24.19
2016-10-26T11:30:54.191Z,24.37
2016-10-26T11:32:06.213Z,24.63
2016-10-26T11:33:19.780Z,24.7
2016-10-26T11:34:32.778Z,24.74
2016-10-26T11:35:45.836Z,25.04
2016-10-26T11:36:59.455Z,25.14
2016-10-26T11:38:11.490Z,25.11
2016-10-26T11:39:24.543Z,25.14
2016-10-26T11:40:38.122Z,25.37
2016-10-26T11:41:50.643Z,25.36
2016-10-26T11:43:04.273Z,25.31
2016-10-26T11:44:17.804Z,25.08
2016-10-26T11:45:30.329Z,24.86
2016-10-26T11:46:42.897Z,24.86
2016-10-26T11:47:55.958Z,25.06
2016-10-26T11:49:09.605Z,25.33
2016-10-26T11:50:22.658Z,25.55
2016-10-26T11:51:36.272Z,25.55
2016-10-26T11:52:49.359Z,25.71
2016-10-26T11:54:02.934Z,25.43
2016-10-26T11:55:15.416Z,25.34
2016-10-26T11:56:28.985Z,25.41
2016-10-26T11:57:41.942Z,25.45
2016-10-26T11:58:55.458Z,25.75
2016-10-26T12:00:08.016Z,26.03
2016-10-26T12:01:21.624Z,26.26
2016-10-26T12:02:34.668Z,26.19
2016-10-26T12:03:47.230Z,26.28
2016-10-26T12:05:00.787Z,26.53
2016-10-26T12:06:13.785Z,26.79
2016-10-26T12:07:26.299Z,26.89
2016-10-26T12:08:39.781Z,27.1
2016-10-26T12:09:52.274Z,27.41
2016-10-26T12:11:05.738Z,27.5
2016-10-26T12:12:18.758Z,27.66
2016-10-26T12:13:31.236Z,27.78
2016-10-26T12:14:43.240Z,27.98
2016-10-26T12:15:56.324Z,27.97
2016-10-26T12:17:08.863Z,28.1
2016-10-26T12:18:22.448Z,28.06
2016-10-26T12:19:35.505Z,27.66
2016-10-26T12:20:47.495Z,27.5
2016-10-26T12:22:00.561Z,27.49
2016-10-26T12:23:13.500Z,27.34
2016-10-26T12:24:27.067Z,26.95
2016-10-26T12:25:40.663Z,26.85
2016-10-26T12:26:54.189Z,26.78
2016-10-26T12:28:06.362Z,26.95
2016-10-26T12:29:19.443Z,27.26
2016-10-26T12:30:33.122Z,27.32
2016-10-26T12:31:45.606Z,27.38
2016-10-26T12:32:58.147Z,27.49
2016-10-26T12:34:11.185Z,27.58
2016-10-26T12:35:23.665Z,27.75
2016-10-26T12:36:37.149Z,27.85
2016-10-26T12:37:50.197Z,28.16
2016-10-26T12:39:03.766Z,28.38
2016-10-26T12:40:15.710Z,28.5
2016-10-26T12:41:28.842Z,28.64
2016-10-26T12:42:41.855Z,28.74
2016-10-26T12:43:54.388Z,28.65
2016-10-26T12:45:06.361Z,28.84
2016-10-26T12:46:19.415Z,28.98
2016-10-26T12:47:31.408Z,29.12
2016-10-26T12:48:44.474Z,29.02
2016-10-26T12:49:56.528Z,28.96
2016-10-26T12:51:09.170Z,28.83
2016-10-26T12:52:22.179Z,28.81
2016-10-26T12:53:34.123Z,28.81
2016-10-26T12:54:45.523Z,28.83
2016-10-26T12:55:57.533Z,28.84
2016-10-26T12:57:09.422Z,29.13
2016-10-26T12:58:20.327Z,29.37
2016-10-26T12:59:32.873Z,29.49
2016-10-26T13:00:45.854Z,29.59
2016-10-26T13:01:57.793Z,29.55
2016-10-26T13:03:11.296Z,29.49
2016-10-26T13:04:24.307Z,29.54
2016-10-26T13:05:37.972Z,29.59
2016-10-26T13:06:51.020Z,29.8
2016-10-26T13:08:04.105Z,29.84
2016-10-26T13:09:16.677Z,30
2016-10-26T13:10:29.224Z,30.03
2016-10-26T13:11:42.301Z,30.18
2016-10-26T13:12:54.829Z,30.05
2016-10-26T13:14:07.947Z,30.18
2016-10-26T13:15:20.957Z,30.55
2016-10-26T13:16:34.022Z,30.68
2016-10-26T13:17:47.095Z,30.65
2016-10-26T13:19:00.149Z,30.8
2016-10-26T13:20:13.240Z,30.88
2016-10-26T13:21:26.375Z,30.9
2016-10-26T13:22:39.469Z,30.86
2016-10-26T13:23:52.504Z,30.65
2016-10-26T13:25:05.485Z,30.29
2016-10-26T13:26:18.557Z,30.28
2016-10-26T13:27:31.608Z,30.07
2016-10-26T13:28:44.644Z,29.95
2016-10-26T13:29:57.180Z,30.13
2016-10-26T13:31:09.715Z,30.49
2016-10-26T13:32:22.305Z,30.59
2016-10-26T13:33:34.790Z,30.67
2016-10-26T13:34:48.361Z,30.56
2016-10-26T13:36:01.388Z,30.62
2016-10-26T13:37:14.457Z,30.52
2016-10-26T13:38:27.553Z,30.26
2016-10-26T13:39:41.119Z,30.39
2016-10-26T13:40:54.774Z,30.3
2016-10-26T13:42:08.362Z,30.3
2016-10-26T13:43:21.425Z,30.21
2016-10-26T13:44:34.517Z,30.21
2016-10-26T13:45:47.651Z,30.24
2016-10-26T13:47:00.707Z,30.2
2016-10-26T13:48:13.734Z,29.95
2016-10-26T13:49:27.380Z,29.91
2016-10-26T13:50:39.372Z,29.56
2016-10-26T13:51:52.507Z,29.47
2016-10-26T13:53:05.021Z,29.49
2016-10-26T13:54:17.502Z,29.47
2016-10-26T13:55:30.513Z,29.44
2016-10-26T13:56:43.543Z,29.39
2016-10-26T13:57:56.058Z,29.37
2016-10-26T13:59:09.076Z,29.39
2016-10-26T14:00:22.143Z,29.46
2016-10-26T14:01:35.717Z,29.47
2016-10-26T14:02:47.271Z,29.43
2016-10-26T14:04:00.347Z,29.37
2016-10-26T14:05:12.389Z,29.28
2016-10-26T14:06:25.952Z,29.18
2016-10-26T14:07:39.554Z,29.29
2016-10-26T14:08:52.625Z,29.18
2016-10-26T14:10:06.223Z,29.12
2016-10-26T14:11:19.226Z,29.1
2016-10-26T14:12:31.778Z,29.15
2016-10-26T14:13:44.260Z,28.96
2016-10-26T14:14:57.276Z,28.98
2016-10-26T14:16:09.749Z,29
2016-10-26T14:17:22.772Z,28.94
2016-10-26T14:18:35.832Z,29.07
2016-10-26T14:19:49.468Z,28.93
2016-10-26T14:21:03.158Z,29.09
2016-10-26T14:22:16.767Z,28.84
2016-10-26T14:23:29.865Z,28.87
2016-10-26T14:24:43.734Z,28.81
2016-10-26T14:25:57.480Z,28.93
2016-10-26T14:27:10.586Z,28.94
2016-10-26T14:28:24.246Z,28.98
2016-10-26T14:29:37.776Z,29.03
2016-10-26T14:30:50.879Z,29.02
2016-10-26T14:32:04.451Z,28.96
2016-10-26T14:33:17.529Z,28.91
2016-10-26T14:34:31.084Z,28.87
2016-10-26T14:35:43.686Z,28.81
2016-10-26T14:36:56.734Z,28.79
2016-10-26T14:38:09.764Z,28.87
2016-10-26T14:39:23.068Z,28.87
2016-10-26T14:40:36.191Z,28.81
2016-10-26T14:41:49.232Z,28.93
2016-10-26T14:43:01.721Z,28.93
2016-10-26T14:44:14.232Z,28.98
2016-10-26T14:45:27.842Z,29.06
2016-10-26T14:46:39.790Z,29.07
2016-10-26T14:47:53.327Z,29.09
2016-10-26T14:49:06.402Z,29.1
2016-10-26T14:50:18.430Z,29.21
2016-10-26T14:51:32.041Z,29.19
2016-10-26T14:52:44.586Z,29.27
2016-10-26T14:53:56.041Z,29.36
2016-10-26T14:55:09.122Z,29.34
2016-10-26T14:56:21.713Z,29.27
2016-10-26T14:57:34.766Z,29.39
2016-10-26T14:58:47.228Z,29.06
2016-10-26T15:00:00.285Z,28.86
2016-10-26T15:01:13.833Z,28.64
2016-10-26T15:02:26.916Z,28.61
2016-10-26T15:03:40.497Z,28.42
2016-10-26T15:04:53.506Z,28.42
2016-10-26T15:06:05.990Z,28.34
2016-10-26T15:07:19.490Z,28.09
2016-10-26T15:08:32.534Z,28.05
2016-10-26T15:09:46.034Z,28.09
2016-10-26T15:10:59.113Z,28.19
2016-10-26T15:12:12.278Z,28.31
2016-10-26T15:13:25.279Z,28.43
2016-10-26T15:14:38.898Z,28.4
2016-10-26T15:15:51.973Z,28.42
2016-10-26T15:17:04.966Z,28.5
2016-10-26T15:18:18.064Z,28.47
2016-10-26T15:19:31.616Z,28.47
2016-10-26T15:20:43.577Z,28.56
2016-10-26T15:21:57.170Z,28.66
2016-10-26T15:23:09.072Z,28.79
2016-10-26T15:24:21.613Z,28.87
2016-10-26T15:25:35.354Z,28.89
2016-10-26T15:26:47.371Z,28.9
2016-10-26T15:27:58.850Z,29.1
2016-10-26T15:29:12.324Z,29.17
2016-10-26T15:30:25.915Z,29.27
2016-10-26T15:31:39.484Z,29.24
2016-10-26T15:32:52.044Z,29.28
2016-10-26T15:34:04.526Z,29.29
2016-10-26T15:35:18.143Z,29.24
2016-10-26T15:36:30.674Z,29.25
2016-10-26T15:37:43.705Z,29.15
2016-10-26T15:38:56.261Z,29.12
2016-10-26T15:40:09.865Z,29.13
2016-10-26T15:41:23.499Z,29.24
2016-10-26T15:42:37.065Z,29.19
2016-10-26T15:43:50.162Z,29.09
2016-10-26T15:45:02.702Z,29.13
2016-10-26T15:46:15.756Z,29.13
2016-10-26T15:47:29.043Z,29.09
2016-10-26T15:48:42.051Z,29.18